CMP732 MPTO-SASA
Flight info
| Callsign | CMP732 |
|---|---|
| Flight time | 5h 8m |
| Altitude | 35000 |
| Route | DANDA1A DANDA DCT IRATA DCT BUSMO UN420 VUMPU UM784 ESUVO/N0457F370 UM784 PAPEK UN525 NAXET UM776 JUJ JUY1 |
| Aircraft | B738/M-SDE2E3FGHIRWXY/LB1 |
Departure
| Time | 2026-05-05 16:54 |
|---|---|
| Airport | Tocumen International Airport (MPTO) |
Arrival
| Time | 2026-05-05 22:02 |
|---|---|
| Airport | Martín Miguel de Güemes International Airport (SASA) |
| Time | Latitude | Longitude | Altitude | Speed | Heading |
|---|---|---|---|---|---|
| 2026-05-05 15:47 | 9.05766 | -79.39065 | 29 ft | 0 kts | 121° |
| 2026-05-05 16:31 | 9.05769 | -79.39071 | 29 ft | 2 kts | 120° |
| 2026-05-05 16:31 | 9.05777 | -79.39085 | 29 ft | 2 kts | 121° |
| 2026-05-05 16:31 | 9.05786 | -79.39099 | 29 ft | 2 kts | 127° |
| 2026-05-05 16:31 | 9.05797 | -79.39107 | 29 ft | 1 kts | 203° |
| 2026-05-05 16:32 | 9.05799 | -79.39106 | 29 ft | 0 kts | 206° |
| 2026-05-05 16:44 | 9.05783 | -79.39115 | 29 ft | 6 kts | 208° |
| 2026-05-05 16:44 | 9.05730 | -79.39110 | 29 ft | 10 kts | 142° |
| 2026-05-05 16:44 | 9.05684 | -79.39040 | 29 ft | 15 kts | 121° |
| 2026-05-05 16:45 | 9.05625 | -79.38964 | 29 ft | 8 kts | 163° |
| 2026-05-05 16:45 | 9.05571 | -79.38983 | 29 ft | 10 kts | 207° |
| 2026-05-05 16:45 | 9.05493 | -79.39027 | 29 ft | 15 kts | 210° |
| 2026-05-05 16:45 | 9.05388 | -79.39088 | 29 ft | 19 kts | 210° |
| 2026-05-05 16:46 | 9.05262 | -79.39160 | 29 ft | 23 kts | 210° |
| 2026-05-05 16:46 | 9.05113 | -79.39244 | 29 ft | 26 kts | 210° |
| 2026-05-05 16:46 | 9.04950 | -79.39339 | 29 ft | 27 kts | 208° |
| 2026-05-05 16:46 | 9.04832 | -79.39362 | 29 ft | 15 kts | 136° |
| 2026-05-05 16:47 | 9.04813 | -79.39333 | 30 ft | 0 kts | 121° |
| 2026-05-05 16:51 | 9.04807 | -79.39323 | 29 ft | 5 kts | 121° |
| 2026-05-05 16:51 | 9.04791 | -79.39278 | 30 ft | 9 kts | 92° |
| 2026-05-05 16:51 | 9.04832 | -79.39221 | 30 ft | 12 kts | 30° |
| 2026-05-05 16:52 | 9.04886 | -79.39189 | 30 ft | 0 kts | 32° |
| 2026-05-05 16:52 | 9.04894 | -79.39185 | 30 ft | 5 kts | 29° |
| 2026-05-05 16:52 | 9.04897 | -79.39183 | 30 ft | 0 kts | 29° |
| 2026-05-05 16:53 | 9.04902 | -79.39181 | 30 ft | 8 kts | 29° |
| 2026-05-05 16:53 | 9.05143 | -79.39043 | 30 ft | 72 kts | 30° |
| 2026-05-05 16:53 | 9.05761 | -79.38693 | 30 ft | 129 kts | 29° |
| 2026-05-05 16:53 | 9.06688 | -79.38153 | 31 ft | 176 kts | 35° |
| 2026-05-05 16:54 | 9.07809 | -79.37460 | 354 ft | 194 kts | 32° |
| 2026-05-05 16:54 | 9.08083 | -79.37299 | 521 ft | 194 kts | 32° |
| 2026-05-05 16:54 | 9.08653 | -79.36936 | 879 ft | 194 kts | 38° |
| 2026-05-05 16:54 | 9.09486 | -79.35926 | 1646 ft | 186 kts | 67° |
| 2026-05-05 16:55 | 9.09721 | -79.34632 | 2189 ft | 197 kts | 93° |
| 2026-05-05 16:55 | 9.09350 | -79.33230 | 2455 ft | 214 kts | 116° |
| 2026-05-05 16:55 | 9.08452 | -79.32034 | 2780 ft | 227 kts | 142° |
| 2026-05-05 16:55 | 9.06901 | -79.31487 | 2910 ft | 252 kts | 178° |
| 2026-05-05 16:56 | 9.05085 | -79.31399 | 3254 ft | 268 kts | 173° |
| 2026-05-05 16:56 | 9.03221 | -79.31132 | 3799 ft | 274 kts | 169° |
| 2026-05-05 16:56 | 9.01976 | -79.30892 | 4204 ft | 276 kts | 167° |
| 2026-05-05 16:56 | 9.01549 | -79.30801 | 4357 ft | 276 kts | 166° |
| 2026-05-05 16:57 | 8.99690 | -79.30363 | 5024 ft | 277 kts | 164° |
| 2026-05-05 16:57 | 8.97816 | -79.29867 | 5662 ft | 279 kts | 163° |
| 2026-05-05 16:57 | 8.95934 | -79.29329 | 6289 ft | 281 kts | 162° |
| 2026-05-05 16:57 | 8.94051 | -79.28761 | 6885 ft | 283 kts | 161° |
| 2026-05-05 16:58 | 8.92167 | -79.28173 | 7481 ft | 284 kts | 161° |
| 2026-05-05 16:58 | 8.90271 | -79.27566 | 8078 ft | 286 kts | 160° |
| 2026-05-05 16:58 | 8.88371 | -79.26947 | 8695 ft | 287 kts | 160° |
| 2026-05-05 16:58 | 8.86466 | -79.26320 | 9285 ft | 289 kts | 159° |
| 2026-05-05 16:59 | 8.84545 | -79.25682 | 9870 ft | 291 kts | 159° |
| 2026-05-05 16:59 | 8.82631 | -79.25043 | 10281 ft | 300 kts | 159° |
| 2026-05-05 16:59 | 8.80587 | -79.24356 | 10388 ft | 318 kts | 159° |
| 2026-05-05 16:59 | 8.78428 | -79.23629 | 10520 ft | 335 kts | 159° |
| 2026-05-05 17:00 | 8.76159 | -79.22864 | 10639 ft | 351 kts | 160° |
| 2026-05-05 17:00 | 8.73793 | -79.22066 | 10843 ft | 363 kts | 160° |
| 2026-05-05 17:00 | 8.71380 | -79.21254 | 11241 ft | 367 kts | 160° |
| 2026-05-05 17:00 | 8.68943 | -79.20434 | 11728 ft | 369 kts | 160° |
| 2026-05-05 17:01 | 8.66495 | -79.19609 | 12194 ft | 372 kts | 160° |
| 2026-05-05 17:01 | 8.64030 | -79.18779 | 12642 ft | 375 kts | 160° |
| 2026-05-05 17:01 | 8.61546 | -79.17942 | 13082 ft | 378 kts | 160° |
| 2026-05-05 17:01 | 8.59043 | -79.17098 | 13515 ft | 381 kts | 160° |
| 2026-05-05 17:02 | 8.56551 | -79.16258 | 13919 ft | 384 kts | 160° |
| 2026-05-05 17:02 | 8.54014 | -79.15403 | 14320 ft | 385 kts | 160° |
| 2026-05-05 17:02 | 8.51458 | -79.14541 | 14726 ft | 387 kts | 160° |
| 2026-05-05 17:02 | 8.48896 | -79.13678 | 15124 ft | 389 kts | 160° |
| 2026-05-05 17:03 | 8.46317 | -79.12809 | 15506 ft | 392 kts | 160° |
| 2026-05-05 17:03 | 8.43726 | -79.11935 | 15892 ft | 394 kts | 160° |
| 2026-05-05 17:03 | 8.41123 | -79.11058 | 16278 ft | 396 kts | 160° |
| 2026-05-05 17:03 | 8.38500 | -79.10175 | 16664 ft | 398 kts | 160° |
| 2026-05-05 17:04 | 8.35864 | -79.09287 | 17035 ft | 400 kts | 160° |
| 2026-05-05 17:04 | 8.33222 | -79.08397 | 17398 ft | 402 kts | 160° |
| 2026-05-05 17:04 | 8.30551 | -79.07497 | 17754 ft | 404 kts | 160° |
| 2026-05-05 17:04 | 8.27874 | -79.06596 | 18113 ft | 407 kts | 160° |
| 2026-05-05 17:05 | 8.25180 | -79.05689 | 18421 ft | 409 kts | 160° |
| 2026-05-05 17:05 | 8.22471 | -79.04777 | 18720 ft | 411 kts | 160° |
| 2026-05-05 17:05 | 8.19780 | -79.03872 | 19007 ft | 413 kts | 160° |
| 2026-05-05 17:05 | 8.17043 | -79.02951 | 19296 ft | 415 kts | 160° |
| 2026-05-05 17:06 | 8.14295 | -79.02026 | 19582 ft | 417 kts | 160° |
| 2026-05-05 17:06 | 8.11529 | -79.01096 | 19860 ft | 420 kts | 160° |
| 2026-05-05 17:06 | 8.08750 | -79.00161 | 20142 ft | 422 kts | 160° |
| 2026-05-05 17:06 | 8.05957 | -78.99221 | 20421 ft | 424 kts | 160° |
| 2026-05-05 17:07 | 8.03147 | -78.98276 | 20686 ft | 426 kts | 160° |
| 2026-05-05 17:07 | 8.00325 | -78.97328 | 20952 ft | 428 kts | 161° |
| 2026-05-05 17:07 | 7.97496 | -78.96377 | 21207 ft | 430 kts | 160° |
| 2026-05-05 17:07 | 7.94646 | -78.95419 | 21468 ft | 432 kts | 160° |
| 2026-05-05 17:08 | 7.91786 | -78.94457 | 21722 ft | 434 kts | 160° |
| 2026-05-05 17:08 | 7.88906 | -78.93490 | 21971 ft | 436 kts | 161° |
| 2026-05-05 17:08 | 7.86058 | -78.92533 | 22207 ft | 438 kts | 161° |
| 2026-05-05 17:08 | 7.83147 | -78.91555 | 22449 ft | 441 kts | 161° |
| 2026-05-05 17:09 | 7.80236 | -78.90577 | 22682 ft | 443 kts | 161° |
| 2026-05-05 17:09 | 7.77302 | -78.89592 | 22925 ft | 444 kts | 161° |
| 2026-05-05 17:09 | 7.74360 | -78.88604 | 23155 ft | 446 kts | 161° |
| 2026-05-05 17:09 | 7.71408 | -78.87613 | 23377 ft | 448 kts | 161° |
| 2026-05-05 17:10 | 7.68443 | -78.86618 | 23582 ft | 450 kts | 161° |
| 2026-05-05 17:10 | 7.65469 | -78.85619 | 23781 ft | 451 kts | 161° |
| 2026-05-05 17:10 | 7.62489 | -78.84619 | 23991 ft | 452 kts | 161° |
| 2026-05-05 17:10 | 7.59500 | -78.83616 | 24192 ft | 453 kts | 161° |
| 2026-05-05 17:11 | 7.56508 | -78.82612 | 24399 ft | 454 kts | 160° |
| 2026-05-05 17:11 | 7.53505 | -78.81604 | 24576 ft | 455 kts | 160° |
| 2026-05-05 17:11 | 7.50496 | -78.80588 | 24760 ft | 456 kts | 159° |
| 2026-05-05 17:11 | 7.47623 | -78.79336 | 24929 ft | 456 kts | 150° |
| 2026-05-05 17:12 | 7.44852 | -78.77700 | 25128 ft | 456 kts | 147° |
| 2026-05-05 17:12 | 7.42179 | -78.76048 | 25309 ft | 457 kts | 147° |
| 2026-05-05 17:12 | 7.39477 | -78.74363 | 25490 ft | 458 kts | 147° |
| 2026-05-05 17:12 | 7.36761 | -78.72676 | 25672 ft | 459 kts | 147° |
| 2026-05-05 17:13 | 7.34033 | -78.70996 | 25850 ft | 460 kts | 147° |
| 2026-05-05 17:13 | 7.31298 | -78.69324 | 26022 ft | 460 kts | 147° |
| 2026-05-05 17:13 | 7.28550 | -78.67652 | 26189 ft | 462 kts | 148° |
| 2026-05-05 17:13 | 7.25793 | -78.65981 | 26353 ft | 462 kts | 148° |
| 2026-05-05 17:14 | 7.23035 | -78.64310 | 26524 ft | 463 kts | 148° |
| 2026-05-05 17:14 | 7.20268 | -78.62636 | 26683 ft | 464 kts | 148° |
| 2026-05-05 17:14 | 7.17496 | -78.60957 | 26835 ft | 465 kts | 148° |
| 2026-05-05 17:14 | 7.14721 | -78.59277 | 26983 ft | 466 kts | 148° |
| 2026-05-05 17:15 | 7.11940 | -78.57593 | 27140 ft | 467 kts | 148° |
| 2026-05-05 17:15 | 7.09154 | -78.55906 | 27297 ft | 467 kts | 148° |
| 2026-05-05 17:15 | 7.06367 | -78.54218 | 27425 ft | 468 kts | 148° |
| 2026-05-05 17:15 | 7.03569 | -78.52524 | 27573 ft | 469 kts | 148° |
| 2026-05-05 17:16 | 7.00769 | -78.50829 | 27707 ft | 470 kts | 148° |
| 2026-05-05 17:16 | 6.97962 | -78.49130 | 27844 ft | 471 kts | 148° |
| 2026-05-05 17:16 | 6.95149 | -78.47427 | 27980 ft | 472 kts | 148° |
| 2026-05-05 17:16 | 6.92336 | -78.45725 | 28118 ft | 472 kts | 148° |
| 2026-05-05 17:17 | 6.89520 | -78.44021 | 28260 ft | 473 kts | 148° |
| 2026-05-05 17:17 | 6.86728 | -78.42332 | 28380 ft | 473 kts | 148° |
| 2026-05-05 17:17 | 6.83907 | -78.40626 | 28548 ft | 473 kts | 148° |
| 2026-05-05 17:17 | 6.81091 | -78.38923 | 28759 ft | 472 kts | 148° |
| 2026-05-05 17:18 | 6.78273 | -78.37218 | 28992 ft | 470 kts | 148° |
| 2026-05-05 17:18 | 6.75473 | -78.35525 | 29180 ft | 469 kts | 148° |
| 2026-05-05 17:18 | 6.72678 | -78.33835 | 29362 ft | 469 kts | 148° |
| 2026-05-05 17:18 | 6.69889 | -78.32148 | 29548 ft | 468 kts | 148° |
| 2026-05-05 17:19 | 6.67101 | -78.30459 | 29763 ft | 467 kts | 148° |
| 2026-05-05 17:19 | 6.64326 | -78.28777 | 29993 ft | 465 kts | 148° |
| 2026-05-05 17:19 | 6.61556 | -78.27098 | 30167 ft | 464 kts | 148° |
| 2026-05-05 17:19 | 6.58782 | -78.25416 | 30288 ft | 464 kts | 148° |
| 2026-05-05 17:20 | 6.56017 | -78.23739 | 30414 ft | 465 kts | 148° |
| 2026-05-05 17:20 | 6.53284 | -78.22082 | 30557 ft | 464 kts | 148° |
| 2026-05-05 17:20 | 6.50518 | -78.20406 | 30717 ft | 464 kts | 148° |
| 2026-05-05 17:20 | 6.47756 | -78.18732 | 30860 ft | 464 kts | 148° |
| 2026-05-05 17:21 | 6.44992 | -78.17057 | 31001 ft | 463 kts | 148° |
| 2026-05-05 17:21 | 6.42232 | -78.15386 | 31152 ft | 463 kts | 148° |
| 2026-05-05 17:22 | 6.34886 | -78.10936 | 31543 ft | 462 kts | 148° |
| 2026-05-05 17:22 | 6.32133 | -78.09269 | 31710 ft | 462 kts | 148° |
| 2026-05-05 17:22 | 6.29379 | -78.07602 | 31855 ft | 462 kts | 148° |
| 2026-05-05 17:22 | 6.26626 | -78.05935 | 31993 ft | 462 kts | 148° |
| 2026-05-05 17:23 | 6.23877 | -78.04272 | 32161 ft | 461 kts | 148° |
| 2026-05-05 17:23 | 6.21132 | -78.02610 | 32315 ft | 460 kts | 148° |
| 2026-05-05 17:23 | 6.18409 | -78.00963 | 32455 ft | 460 kts | 148° |
| 2026-05-05 17:23 | 6.15659 | -77.99298 | 32584 ft | 461 kts | 148° |
| 2026-05-05 17:24 | 6.12911 | -77.97636 | 32733 ft | 460 kts | 148° |
| 2026-05-05 17:24 | 6.10163 | -77.95974 | 32891 ft | 460 kts | 148° |
| 2026-05-05 17:24 | 6.07423 | -77.94316 | 33033 ft | 460 kts | 148° |
| 2026-05-05 17:24 | 6.04683 | -77.92659 | 33164 ft | 460 kts | 148° |
| 2026-05-05 17:25 | 6.01941 | -77.91001 | 33307 ft | 460 kts | 148° |
| 2026-05-05 17:25 | 6.00128 | -77.89905 | 33409 ft | 459 kts | 148° |
| 2026-05-05 17:25 | 5.96464 | -77.87690 | 33604 ft | 459 kts | 148° |
| 2026-05-05 17:25 | 5.93730 | -77.86037 | 33749 ft | 459 kts | 148° |
| 2026-05-05 17:26 | 5.90991 | -77.84383 | 33853 ft | 460 kts | 148° |
| 2026-05-05 17:26 | 5.85537 | -77.81092 | 34091 ft | 459 kts | 148° |
| 2026-05-05 17:26 | 5.82796 | -77.79435 | 34196 ft | 459 kts | 148° |
| 2026-05-05 17:27 | 5.80061 | -77.77781 | 34324 ft | 459 kts | 148° |
| 2026-05-05 17:27 | 5.77328 | -77.76129 | 34442 ft | 458 kts | 148° |
| 2026-05-05 17:27 | 5.74593 | -77.74476 | 34543 ft | 458 kts | 148° |
| 2026-05-05 17:28 | 5.69124 | -77.71172 | 34737 ft | 459 kts | 148° |
| 2026-05-05 17:28 | 5.66384 | -77.69517 | 34851 ft | 458 kts | 148° |
| 2026-05-05 17:28 | 5.63644 | -77.67863 | 34904 ft | 459 kts | 148° |
| 2026-05-05 17:29 | 5.58156 | -77.64551 | 34921 ft | 460 kts | 148° |
| 2026-05-05 17:29 | 5.52708 | -77.61263 | 34927 ft | 460 kts | 148° |
| 2026-05-05 17:30 | 5.47212 | -77.57947 | 34925 ft | 461 kts | 148° |
| 2026-05-05 17:30 | 5.41705 | -77.54625 | 34927 ft | 461 kts | 148° |
| 2026-05-05 17:31 | 5.36202 | -77.51306 | 34935 ft | 461 kts | 148° |
| 2026-05-05 17:31 | 5.33442 | -77.49642 | 34934 ft | 462 kts | 148° |
| 2026-05-05 17:32 | 5.24734 | -77.44392 | 34931 ft | 461 kts | 148° |
| 2026-05-05 17:32 | 5.19235 | -77.41078 | 34927 ft | 461 kts | 148° |
| 2026-05-05 17:33 | 5.13724 | -77.37757 | 34925 ft | 461 kts | 148° |
| 2026-05-05 17:33 | 5.08257 | -77.34463 | 34922 ft | 461 kts | 148° |
| 2026-05-05 17:34 | 5.02753 | -77.31149 | 34932 ft | 461 kts | 148° |
| 2026-05-05 17:34 | 4.97249 | -77.27834 | 34933 ft | 461 kts | 148° |
| 2026-05-05 17:35 | 4.91743 | -77.24519 | 34934 ft | 461 kts | 148° |
| 2026-05-05 17:35 | 4.86230 | -77.21200 | 34930 ft | 462 kts | 148° |
| 2026-05-05 17:36 | 4.80758 | -77.17906 | 34927 ft | 462 kts | 148° |
| 2026-05-05 17:36 | 4.75243 | -77.14588 | 34931 ft | 462 kts | 148° |
| 2026-05-05 17:37 | 4.69737 | -77.11276 | 34928 ft | 461 kts | 148° |
| 2026-05-05 17:37 | 4.64234 | -77.07965 | 34938 ft | 461 kts | 148° |
| 2026-05-05 17:38 | 4.58730 | -77.04655 | 34938 ft | 461 kts | 148° |
| 2026-05-05 17:38 | 4.53233 | -77.01350 | 34936 ft | 460 kts | 147° |
| 2026-05-05 17:39 | 4.47747 | -76.98052 | 34930 ft | 460 kts | 147° |
| 2026-05-05 17:39 | 4.42264 | -76.94756 | 34937 ft | 459 kts | 147° |
| 2026-05-05 17:40 | 4.36819 | -76.91484 | 34944 ft | 459 kts | 147° |
| 2026-05-05 17:40 | 4.31350 | -76.88197 | 34949 ft | 458 kts | 147° |
| 2026-05-05 17:41 | 4.25876 | -76.84909 | 34966 ft | 458 kts | 147° |
| 2026-05-05 17:41 | 4.20404 | -76.81622 | 34971 ft | 458 kts | 147° |
| 2026-05-05 17:42 | 4.14936 | -76.78338 | 34980 ft | 458 kts | 147° |
| 2026-05-05 17:42 | 4.09500 | -76.75073 | 34985 ft | 458 kts | 147° |
| 2026-05-05 17:43 | 4.04026 | -76.71787 | 35000 ft | 458 kts | 148° |
| 2026-05-05 17:43 | 4.00367 | -76.69591 | 35009 ft | 459 kts | 148° |
| 2026-05-05 17:44 | 3.94542 | -76.66094 | 35006 ft | 460 kts | 148° |
| 2026-05-05 17:44 | 3.89058 | -76.62803 | 35027 ft | 460 kts | 148° |
| 2026-05-05 17:45 | 3.83563 | -76.59506 | 35021 ft | 460 kts | 148° |
| 2026-05-05 17:45 | 3.78067 | -76.56209 | 35036 ft | 460 kts | 148° |
| 2026-05-05 17:46 | 3.73495 | -76.53466 | 35049 ft | 460 kts | 148° |
| 2026-05-05 17:46 | 3.67102 | -76.49632 | 35073 ft | 461 kts | 148° |
| 2026-05-05 17:47 | 3.62488 | -76.46865 | 35072 ft | 461 kts | 148° |
| 2026-05-05 17:47 | 3.57025 | -76.43590 | 35077 ft | 461 kts | 148° |
| 2026-05-05 17:48 | 3.51529 | -76.40295 | 35078 ft | 460 kts | 148° |
| 2026-05-05 17:48 | 3.46030 | -76.36998 | 35072 ft | 460 kts | 148° |
| 2026-05-05 17:49 | 3.40534 | -76.33704 | 35076 ft | 460 kts | 147° |
| 2026-05-05 17:49 | 3.35037 | -76.30410 | 35081 ft | 460 kts | 147° |
| 2026-05-05 17:50 | 3.29539 | -76.27116 | 35082 ft | 460 kts | 147° |
| 2026-05-05 17:50 | 3.24037 | -76.23819 | 35105 ft | 460 kts | 147° |
| 2026-05-05 17:51 | 3.18542 | -76.20527 | 35120 ft | 460 kts | 147° |
| 2026-05-05 17:51 | 3.13078 | -76.17255 | 35143 ft | 460 kts | 147° |
| 2026-05-05 17:52 | 3.07590 | -76.13968 | 35156 ft | 459 kts | 147° |
| 2026-05-05 17:52 | 3.02097 | -76.10680 | 35171 ft | 459 kts | 147° |
| 2026-05-05 17:53 | 2.96615 | -76.07397 | 35178 ft | 459 kts | 147° |
| 2026-05-05 17:53 | 2.91162 | -76.04132 | 35163 ft | 459 kts | 147° |
| 2026-05-05 17:54 | 2.85690 | -76.00856 | 35178 ft | 458 kts | 147° |
| 2026-05-05 17:54 | 2.80221 | -75.97582 | 35185 ft | 458 kts | 147° |
| 2026-05-05 17:55 | 2.74741 | -75.94303 | 35172 ft | 459 kts | 147° |
| 2026-05-05 17:55 | 2.69257 | -75.91021 | 35153 ft | 459 kts | 147° |
| 2026-05-05 17:56 | 2.63766 | -75.87736 | 35147 ft | 460 kts | 147° |
| 2026-05-05 17:56 | 2.58273 | -75.84449 | 35121 ft | 460 kts | 147° |
| 2026-05-05 17:57 | 2.52812 | -75.81182 | 35113 ft | 460 kts | 147° |
| 2026-05-05 17:57 | 2.47317 | -75.77895 | 35100 ft | 460 kts | 147° |
| 2026-05-05 17:58 | 2.41820 | -75.74608 | 35088 ft | 461 kts | 147° |
| 2026-05-05 17:58 | 2.36317 | -75.71316 | 35088 ft | 461 kts | 147° |
| 2026-05-05 17:59 | 2.30806 | -75.68020 | 35082 ft | 462 kts | 147° |
| 2026-05-05 17:59 | 2.25290 | -75.64722 | 35091 ft | 462 kts | 147° |
| 2026-05-05 18:00 | 2.19768 | -75.61421 | 35091 ft | 461 kts | 147° |
| 2026-05-05 18:00 | 2.14256 | -75.58126 | 35099 ft | 461 kts | 147° |
| 2026-05-05 18:01 | 2.08785 | -75.54855 | 35098 ft | 461 kts | 147° |
| 2026-05-05 18:01 | 2.03285 | -75.51567 | 35102 ft | 460 kts | 147° |
| 2026-05-05 18:02 | 1.97790 | -75.48282 | 35103 ft | 459 kts | 147° |
| 2026-05-05 18:02 | 1.92310 | -75.45007 | 35088 ft | 458 kts | 147° |
| 2026-05-05 18:03 | 1.86835 | -75.41736 | 35076 ft | 458 kts | 147° |
| 2026-05-05 18:03 | 1.81368 | -75.38468 | 35069 ft | 457 kts | 147° |
| 2026-05-05 18:04 | 1.75921 | -75.35212 | 35051 ft | 460 kts | 147° |
| 2026-05-05 18:04 | 1.70424 | -75.31927 | 35039 ft | 461 kts | 147° |
| 2026-05-05 18:05 | 1.64928 | -75.28644 | 35035 ft | 460 kts | 147° |
| 2026-05-05 18:05 | 1.59429 | -75.25362 | 35032 ft | 460 kts | 147° |
| 2026-05-05 18:06 | 1.53919 | -75.22072 | 35001 ft | 463 kts | 147° |
| 2026-05-05 18:06 | 1.48389 | -75.18769 | 35004 ft | 462 kts | 147° |
| 2026-05-05 18:07 | 1.42913 | -75.15499 | 35000 ft | 460 kts | 147° |
| 2026-05-05 18:07 | 1.37427 | -75.12223 | 35002 ft | 459 kts | 147° |
| 2026-05-05 18:08 | 1.31947 | -75.08951 | 34999 ft | 458 kts | 147° |
| 2026-05-05 18:08 | 1.26489 | -75.05691 | 34991 ft | 457 kts | 147° |
| 2026-05-05 18:09 | 1.21032 | -75.02432 | 34991 ft | 457 kts | 147° |
| 2026-05-05 18:09 | 1.15568 | -74.99170 | 34998 ft | 458 kts | 147° |
| 2026-05-05 18:10 | 1.10094 | -74.95901 | 34993 ft | 458 kts | 147° |
| 2026-05-05 18:10 | 1.04608 | -74.92626 | 34989 ft | 458 kts | 147° |
| 2026-05-05 18:11 | 0.99141 | -74.89362 | 34990 ft | 458 kts | 147° |
| 2026-05-05 18:11 | 0.93708 | -74.86118 | 34988 ft | 457 kts | 147° |
| 2026-05-05 18:12 | 0.88247 | -74.82856 | 34990 ft | 457 kts | 147° |
| 2026-05-05 18:12 | 0.82790 | -74.79599 | 34985 ft | 457 kts | 147° |
| 2026-05-05 18:13 | 0.77330 | -74.76342 | 34985 ft | 457 kts | 147° |
| 2026-05-05 18:13 | 0.71872 | -74.73086 | 34984 ft | 456 kts | 147° |
| 2026-05-05 18:14 | 0.66417 | -74.69832 | 34985 ft | 456 kts | 147° |
| 2026-05-05 18:14 | 0.60961 | -74.66575 | 34985 ft | 456 kts | 147° |
| 2026-05-05 18:15 | 0.55507 | -74.63320 | 34985 ft | 456 kts | 147° |
| 2026-05-05 18:15 | 0.50050 | -74.60064 | 34978 ft | 457 kts | 147° |
| 2026-05-05 18:16 | 0.44598 | -74.56810 | 34985 ft | 457 kts | 147° |
| 2026-05-05 18:16 | 0.39168 | -74.53570 | 34980 ft | 458 kts | 147° |
| 2026-05-05 18:17 | 0.33700 | -74.50306 | 34981 ft | 458 kts | 147° |
| 2026-05-05 18:17 | 0.28233 | -74.47044 | 34982 ft | 458 kts | 147° |
| 2026-05-05 18:18 | 0.22758 | -74.43777 | 34983 ft | 458 kts | 147° |
| 2026-05-05 18:18 | 0.17286 | -74.40512 | 34982 ft | 458 kts | 147° |
| 2026-05-05 18:19 | 0.11856 | -74.37272 | 34981 ft | 458 kts | 147° |
| 2026-05-05 18:19 | 0.06391 | -74.34011 | 34983 ft | 458 kts | 147° |
| 2026-05-05 18:20 | 0.00925 | -74.30749 | 34982 ft | 458 kts | 147° |
| 2026-05-05 18:20 | -0.04548 | -74.27483 | 34984 ft | 458 kts | 147° |
| 2026-05-05 18:21 | -0.10015 | -74.24220 | 34987 ft | 458 kts | 147° |
| 2026-05-05 18:21 | -0.15489 | -74.20954 | 34988 ft | 458 kts | 147° |
| 2026-05-05 18:22 | -0.20959 | -74.17690 | 34989 ft | 458 kts | 147° |
| 2026-05-05 18:22 | -0.26395 | -74.14446 | 34982 ft | 458 kts | 147° |
| 2026-05-05 18:23 | -0.31862 | -74.11184 | 34985 ft | 458 kts | 147° |
| 2026-05-05 18:23 | -0.37329 | -74.07921 | 34983 ft | 458 kts | 147° |
| 2026-05-05 18:24 | -0.42798 | -74.04658 | 34982 ft | 457 kts | 147° |
| 2026-05-05 18:24 | -0.48265 | -74.01395 | 34984 ft | 457 kts | 147° |
| 2026-05-05 18:25 | -0.52800 | -73.98689 | 34982 ft | 457 kts | 147° |
| 2026-05-05 18:26 | -0.64412 | -73.91758 | 34981 ft | 456 kts | 147° |
| 2026-05-05 18:26 | -0.69832 | -73.88523 | 34979 ft | 456 kts | 147° |
| 2026-05-05 18:27 | -0.75291 | -73.85265 | 34980 ft | 456 kts | 147° |
| 2026-05-05 18:27 | -0.80742 | -73.82011 | 34977 ft | 456 kts | 147° |
| 2026-05-05 18:28 | -0.88929 | -73.77124 | 34979 ft | 457 kts | 147° |
| 2026-05-05 18:28 | -0.94392 | -73.73863 | 34978 ft | 457 kts | 147° |
| 2026-05-05 18:29 | -0.99819 | -73.70622 | 34982 ft | 457 kts | 147° |
| 2026-05-05 18:29 | -1.05291 | -73.67355 | 34976 ft | 458 kts | 147° |
| 2026-05-05 18:30 | -1.10764 | -73.64087 | 34976 ft | 458 kts | 148° |
| 2026-05-05 18:30 | -1.16531 | -73.61392 | 34983 ft | 459 kts | 160° |
| 2026-05-05 18:31 | -1.22614 | -73.59402 | 34974 ft | 460 kts | 160° |
| 2026-05-05 18:31 | -1.28713 | -73.57433 | 34972 ft | 460 kts | 160° |
| 2026-05-05 18:32 | -1.34802 | -73.55425 | 34979 ft | 460 kts | 160° |
| 2026-05-05 18:32 | -1.40826 | -73.53414 | 34974 ft | 460 kts | 160° |
| 2026-05-05 18:33 | -1.46901 | -73.51378 | 34976 ft | 460 kts | 160° |
| 2026-05-05 18:33 | -1.52976 | -73.49344 | 34975 ft | 460 kts | 160° |
| 2026-05-05 18:34 | -1.59052 | -73.47310 | 34977 ft | 460 kts | 160° |
| 2026-05-05 18:34 | -1.65128 | -73.45277 | 34977 ft | 460 kts | 160° |
| 2026-05-05 18:35 | -1.71166 | -73.43256 | 34978 ft | 460 kts | 160° |
| 2026-05-05 18:35 | -1.77240 | -73.41223 | 34978 ft | 460 kts | 160° |
| 2026-05-05 18:36 | -1.83320 | -73.39187 | 34974 ft | 461 kts | 160° |
| 2026-05-05 18:36 | -1.89408 | -73.37149 | 34976 ft | 461 kts | 160° |
| 2026-05-05 18:37 | -1.95493 | -73.35112 | 34983 ft | 461 kts | 160° |
| 2026-05-05 18:37 | -2.01585 | -73.33073 | 34978 ft | 461 kts | 160° |
| 2026-05-05 18:38 | -2.07679 | -73.31032 | 34979 ft | 462 kts | 160° |
| 2026-05-05 18:38 | -2.13741 | -73.29002 | 34981 ft | 462 kts | 160° |
| 2026-05-05 18:39 | -2.19845 | -73.26958 | 34977 ft | 463 kts | 160° |
| 2026-05-05 18:39 | -2.25953 | -73.24912 | 34978 ft | 463 kts | 160° |
| 2026-05-05 18:40 | -2.32069 | -73.22863 | 34978 ft | 464 kts | 159° |
| 2026-05-05 18:40 | -2.38191 | -73.20812 | 34978 ft | 464 kts | 159° |
| 2026-05-05 18:41 | -2.44317 | -73.18760 | 34976 ft | 465 kts | 159° |
| 2026-05-05 18:41 | -2.50448 | -73.16706 | 34981 ft | 465 kts | 159° |
| 2026-05-05 18:42 | -2.56591 | -73.14647 | 34980 ft | 465 kts | 159° |
| 2026-05-05 18:42 | -2.62735 | -73.12588 | 34982 ft | 466 kts | 159° |
| 2026-05-05 18:43 | -2.68882 | -73.10528 | 34981 ft | 466 kts | 159° |
| 2026-05-05 18:43 | -2.74989 | -73.08480 | 34981 ft | 466 kts | 159° |
| 2026-05-05 18:44 | -2.81143 | -73.06417 | 34978 ft | 466 kts | 159° |
| 2026-05-05 18:44 | -2.87296 | -73.04353 | 34984 ft | 466 kts | 159° |
| 2026-05-05 18:45 | -2.93451 | -73.02286 | 34978 ft | 466 kts | 158° |
| 2026-05-05 18:45 | -2.99283 | -72.99534 | 34987 ft | 462 kts | 149° |
| 2026-05-05 18:46 | -3.04892 | -72.96477 | 34983 ft | 462 kts | 149° |
| 2026-05-05 18:46 | -3.10536 | -72.93405 | 34980 ft | 462 kts | 149° |
| 2026-05-05 18:47 | -3.16190 | -72.90365 | 34977 ft | 461 kts | 149° |
| 2026-05-05 18:47 | -3.21847 | -72.87340 | 34977 ft | 461 kts | 150° |
| 2026-05-05 18:48 | -3.26548 | -72.84829 | 34978 ft | 461 kts | 150° |
| 2026-05-05 18:48 | -3.32200 | -72.81810 | 34979 ft | 460 kts | 149° |
| 2026-05-05 18:49 | -3.37856 | -72.78787 | 34981 ft | 460 kts | 149° |
| 2026-05-05 18:49 | -3.43511 | -72.75763 | 34985 ft | 460 kts | 149° |
| 2026-05-05 18:50 | -3.49169 | -72.72738 | 34980 ft | 460 kts | 149° |
| 2026-05-05 18:50 | -3.54822 | -72.69714 | 34980 ft | 461 kts | 149° |
| 2026-05-05 18:51 | -3.60476 | -72.66690 | 34981 ft | 461 kts | 149° |
| 2026-05-05 18:51 | -3.66102 | -72.63680 | 34987 ft | 461 kts | 149° |
| 2026-05-05 18:52 | -3.71772 | -72.60647 | 34987 ft | 462 kts | 149° |
| 2026-05-05 18:52 | -3.77445 | -72.57611 | 34984 ft | 462 kts | 149° |
| 2026-05-05 18:53 | -3.83127 | -72.54570 | 34986 ft | 463 kts | 149° |
| 2026-05-05 18:53 | -3.88811 | -72.51527 | 34991 ft | 463 kts | 149° |
| 2026-05-05 18:54 | -3.94508 | -72.48477 | 34980 ft | 464 kts | 149° |
| 2026-05-05 18:54 | -4.00207 | -72.45426 | 34985 ft | 465 kts | 149° |
| 2026-05-05 18:55 | -4.05877 | -72.42390 | 34981 ft | 465 kts | 149° |
| 2026-05-05 18:55 | -4.11587 | -72.39331 | 34985 ft | 466 kts | 149° |
| 2026-05-05 18:56 | -4.16379 | -72.36764 | 34982 ft | 466 kts | 149° |
| 2026-05-05 18:56 | -4.21485 | -72.34028 | 34981 ft | 466 kts | 149° |
| 2026-05-05 18:57 | -4.27215 | -72.30958 | 34982 ft | 466 kts | 149° |
| 2026-05-05 18:57 | -4.32907 | -72.27907 | 34979 ft | 466 kts | 149° |
| 2026-05-05 18:58 | -4.38626 | -72.24841 | 34979 ft | 466 kts | 149° |
| 2026-05-05 18:58 | -4.44346 | -72.21775 | 34979 ft | 466 kts | 149° |
| 2026-05-05 18:59 | -4.50059 | -72.18710 | 34973 ft | 465 kts | 149° |
| 2026-05-05 18:59 | -4.55772 | -72.15646 | 34973 ft | 465 kts | 149° |
| 2026-05-05 19:00 | -4.61471 | -72.12588 | 34976 ft | 464 kts | 149° |
| 2026-05-05 19:00 | -4.67135 | -72.09548 | 34973 ft | 464 kts | 149° |
| 2026-05-05 19:01 | -4.72826 | -72.06492 | 34971 ft | 464 kts | 149° |
| 2026-05-05 19:01 | -4.78510 | -72.03435 | 34972 ft | 463 kts | 149° |
| 2026-05-05 19:02 | -4.84199 | -72.00373 | 34967 ft | 463 kts | 149° |
| 2026-05-05 19:02 | -4.89888 | -71.97310 | 34972 ft | 464 kts | 149° |
| 2026-05-05 19:03 | -4.95575 | -71.94248 | 34969 ft | 464 kts | 149° |
| 2026-05-05 19:03 | -5.01240 | -71.91198 | 34965 ft | 465 kts | 149° |
| 2026-05-05 19:04 | -5.06938 | -71.88129 | 34960 ft | 465 kts | 149° |
| 2026-05-05 19:04 | -5.12684 | -71.85033 | 34966 ft | 466 kts | 149° |
| 2026-05-05 19:05 | -5.18366 | -71.81971 | 34975 ft | 467 kts | 149° |
| 2026-05-05 19:05 | -5.24102 | -71.78880 | 34965 ft | 469 kts | 149° |
| 2026-05-05 19:06 | -5.29856 | -71.75778 | 34953 ft | 469 kts | 149° |
| 2026-05-05 19:06 | -5.35611 | -71.72675 | 34953 ft | 470 kts | 149° |
| 2026-05-05 19:07 | -5.41379 | -71.69564 | 34958 ft | 470 kts | 149° |
| 2026-05-05 19:07 | -5.47101 | -71.66478 | 34955 ft | 469 kts | 149° |
| 2026-05-05 19:08 | -5.52854 | -71.63374 | 34950 ft | 469 kts | 149° |
| 2026-05-05 19:08 | -5.58609 | -71.60268 | 34952 ft | 469 kts | 149° |
| 2026-05-05 19:09 | -5.64354 | -71.57167 | 34955 ft | 468 kts | 149° |
| 2026-05-05 19:09 | -5.70095 | -71.54066 | 34952 ft | 468 kts | 149° |
| 2026-05-05 19:10 | -5.75826 | -71.50971 | 34949 ft | 467 kts | 149° |
| 2026-05-05 19:10 | -5.81550 | -71.47877 | 34954 ft | 467 kts | 149° |
| 2026-05-05 19:11 | -5.87239 | -71.44803 | 34951 ft | 467 kts | 149° |
| 2026-05-05 19:11 | -5.92954 | -71.41716 | 34947 ft | 466 kts | 149° |
| 2026-05-05 19:12 | -5.98674 | -71.38627 | 34949 ft | 466 kts | 149° |
| 2026-05-05 19:12 | -6.04391 | -71.35536 | 34947 ft | 466 kts | 149° |
| 2026-05-05 19:13 | -6.10109 | -71.32444 | 34952 ft | 467 kts | 149° |
| 2026-05-05 19:13 | -6.15830 | -71.29349 | 34949 ft | 467 kts | 149° |
| 2026-05-05 19:14 | -6.21564 | -71.26246 | 34951 ft | 468 kts | 149° |
| 2026-05-05 19:14 | -6.27294 | -71.23144 | 34947 ft | 468 kts | 149° |
| 2026-05-05 19:15 | -6.33000 | -71.20054 | 34951 ft | 469 kts | 149° |
| 2026-05-05 19:15 | -6.38753 | -71.16939 | 34951 ft | 470 kts | 149° |
| 2026-05-05 19:16 | -6.44517 | -71.13820 | 34948 ft | 471 kts | 149° |
| 2026-05-05 19:16 | -6.50292 | -71.10695 | 34952 ft | 471 kts | 149° |
| 2026-05-05 19:17 | -6.56071 | -71.07566 | 34951 ft | 472 kts | 149° |
| 2026-05-05 19:17 | -6.61858 | -71.04430 | 34953 ft | 472 kts | 149° |
| 2026-05-05 19:18 | -6.67656 | -71.01288 | 34950 ft | 473 kts | 149° |
| 2026-05-05 19:18 | -6.73412 | -70.98167 | 34947 ft | 473 kts | 149° |
| 2026-05-05 19:19 | -6.79209 | -70.95023 | 34952 ft | 473 kts | 149° |
| 2026-05-05 19:19 | -6.85004 | -70.91880 | 34953 ft | 473 kts | 149° |
| 2026-05-05 19:20 | -6.90803 | -70.88734 | 34948 ft | 473 kts | 149° |
| 2026-05-05 19:20 | -6.96607 | -70.85583 | 34946 ft | 474 kts | 149° |
| 2026-05-05 19:21 | -7.02412 | -70.82432 | 34949 ft | 474 kts | 149° |
| 2026-05-05 19:21 | -7.08178 | -70.79300 | 34946 ft | 474 kts | 149° |
| 2026-05-05 19:22 | -7.13989 | -70.76144 | 34948 ft | 473 kts | 149° |
| 2026-05-05 19:22 | -7.19785 | -70.72994 | 34949 ft | 473 kts | 149° |
| 2026-05-05 19:23 | -7.25586 | -70.69841 | 34948 ft | 473 kts | 149° |
| 2026-05-05 19:23 | -7.31385 | -70.66688 | 34945 ft | 473 kts | 149° |
| 2026-05-05 19:24 | -7.37184 | -70.63535 | 34946 ft | 473 kts | 149° |
| 2026-05-05 19:24 | -7.42970 | -70.60386 | 34947 ft | 472 kts | 149° |
| 2026-05-05 19:25 | -7.48726 | -70.57254 | 34950 ft | 472 kts | 149° |
| 2026-05-05 19:25 | -7.54516 | -70.54101 | 34945 ft | 472 kts | 149° |
| 2026-05-05 19:26 | -7.60290 | -70.50955 | 34945 ft | 472 kts | 149° |
| 2026-05-05 19:26 | -7.66063 | -70.47811 | 34942 ft | 471 kts | 149° |
| 2026-05-05 19:27 | -7.71834 | -70.44670 | 34942 ft | 471 kts | 149° |
| 2026-05-05 19:27 | -7.77602 | -70.41527 | 34939 ft | 471 kts | 149° |
| 2026-05-05 19:28 | -7.83330 | -70.38404 | 34941 ft | 471 kts | 149° |
| 2026-05-05 19:28 | -7.89102 | -70.35256 | 34943 ft | 471 kts | 149° |
| 2026-05-05 19:29 | -7.94873 | -70.32107 | 34936 ft | 472 kts | 149° |
| 2026-05-05 19:29 | -8.00660 | -70.28948 | 34943 ft | 473 kts | 149° |
| 2026-05-05 19:30 | -8.06452 | -70.25786 | 34937 ft | 474 kts | 149° |
| 2026-05-05 19:30 | -8.12257 | -70.22615 | 34939 ft | 474 kts | 149° |
| 2026-05-05 19:31 | -8.18070 | -70.19440 | 34937 ft | 475 kts | 149° |
| 2026-05-05 19:31 | -8.23854 | -70.16278 | 34931 ft | 476 kts | 149° |
| 2026-05-05 19:32 | -8.29686 | -70.13090 | 34936 ft | 476 kts | 149° |
| 2026-05-05 19:32 | -8.35511 | -70.09905 | 34932 ft | 476 kts | 149° |
| 2026-05-05 19:33 | -8.41328 | -70.06722 | 34931 ft | 475 kts | 150° |
| 2026-05-05 19:33 | -8.47139 | -70.03542 | 34933 ft | 475 kts | 150° |
| 2026-05-05 19:34 | -8.52949 | -70.00362 | 34936 ft | 474 kts | 150° |
| 2026-05-05 19:35 | -8.60666 | -69.96135 | 34931 ft | 474 kts | 150° |
| 2026-05-05 19:35 | -8.66467 | -69.92957 | 34937 ft | 474 kts | 150° |
| 2026-05-05 19:36 | -8.73202 | -69.89265 | 34927 ft | 474 kts | 150° |
| 2026-05-05 19:36 | -8.78056 | -69.86604 | 34933 ft | 473 kts | 150° |
| 2026-05-05 19:37 | -8.83817 | -69.83444 | 34929 ft | 474 kts | 150° |
| 2026-05-05 19:37 | -8.89623 | -69.80258 | 34930 ft | 474 kts | 150° |
| 2026-05-05 19:38 | -8.95427 | -69.77072 | 34925 ft | 474 kts | 150° |
| 2026-05-05 19:38 | -9.00254 | -69.74421 | 34929 ft | 475 kts | 150° |
| 2026-05-05 19:39 | -9.03887 | -69.72426 | 34926 ft | 475 kts | 150° |
| 2026-05-05 19:39 | -9.09700 | -69.69232 | 34925 ft | 475 kts | 150° |
| 2026-05-05 19:40 | -9.15486 | -69.66053 | 34926 ft | 476 kts | 150° |
| 2026-05-05 19:40 | -9.21307 | -69.62853 | 34920 ft | 476 kts | 150° |
| 2026-05-05 19:41 | -9.27125 | -69.59652 | 34923 ft | 476 kts | 150° |
| 2026-05-05 19:41 | -9.32958 | -69.56443 | 34919 ft | 476 kts | 150° |
| 2026-05-05 19:42 | -9.38786 | -69.53235 | 34919 ft | 476 kts | 150° |
| 2026-05-05 19:42 | -9.44615 | -69.50026 | 34922 ft | 476 kts | 150° |
| 2026-05-05 19:43 | -9.50406 | -69.46836 | 34920 ft | 476 kts | 150° |
| 2026-05-05 19:43 | -9.56227 | -69.43628 | 34920 ft | 476 kts | 150° |
| 2026-05-05 19:44 | -9.62008 | -69.40441 | 34920 ft | 475 kts | 150° |
| 2026-05-05 19:44 | -9.67820 | -69.37235 | 34916 ft | 475 kts | 150° |
| 2026-05-05 19:45 | -9.73630 | -69.34030 | 34918 ft | 475 kts | 150° |
| 2026-05-05 19:45 | -9.79436 | -69.30825 | 34918 ft | 474 kts | 150° |
| 2026-05-05 19:46 | -9.85235 | -69.27624 | 34917 ft | 474 kts | 150° |
| 2026-05-05 19:46 | -9.90988 | -69.24446 | 34916 ft | 474 kts | 150° |
| 2026-05-05 19:47 | -9.96784 | -69.21243 | 34920 ft | 474 kts | 150° |
| 2026-05-05 19:47 | -10.02581 | -69.18038 | 34919 ft | 474 kts | 150° |
| 2026-05-05 19:48 | -10.08375 | -69.14833 | 34918 ft | 474 kts | 150° |
| 2026-05-05 19:48 | -10.14162 | -69.11632 | 34922 ft | 473 kts | 150° |
| 2026-05-05 19:49 | -10.19944 | -69.08431 | 34923 ft | 473 kts | 150° |
| 2026-05-05 19:49 | -10.25693 | -69.05248 | 34920 ft | 473 kts | 150° |
| 2026-05-05 19:50 | -10.31473 | -69.02046 | 34923 ft | 473 kts | 150° |
| 2026-05-05 19:50 | -10.37259 | -68.98839 | 34925 ft | 473 kts | 150° |
| 2026-05-05 19:51 | -10.43039 | -68.95634 | 34922 ft | 473 kts | 150° |
| 2026-05-05 19:51 | -10.48813 | -68.92431 | 34926 ft | 473 kts | 150° |
| 2026-05-05 19:52 | -10.54591 | -68.89225 | 34927 ft | 473 kts | 150° |
| 2026-05-05 19:52 | -10.60363 | -68.86020 | 34930 ft | 473 kts | 150° |
| 2026-05-05 19:53 | -10.66097 | -68.82835 | 34927 ft | 473 kts | 150° |
| 2026-05-05 19:53 | -10.71874 | -68.79625 | 34932 ft | 473 kts | 150° |
| 2026-05-05 19:54 | -10.77649 | -68.76415 | 34924 ft | 473 kts | 150° |
| 2026-05-05 19:54 | -10.83423 | -68.73203 | 34925 ft | 473 kts | 150° |
| 2026-05-05 19:55 | -10.89202 | -68.69987 | 34917 ft | 473 kts | 150° |
| 2026-05-05 19:55 | -10.94978 | -68.66772 | 34921 ft | 473 kts | 150° |
| 2026-05-05 19:56 | -11.00729 | -68.63568 | 34920 ft | 474 kts | 150° |
| 2026-05-05 19:56 | -11.06520 | -68.60340 | 34921 ft | 474 kts | 150° |
| 2026-05-05 19:57 | -11.12314 | -68.57111 | 34921 ft | 474 kts | 150° |
| 2026-05-05 19:57 | -11.18105 | -68.53885 | 34926 ft | 475 kts | 150° |
| 2026-05-05 19:58 | -11.23898 | -68.50655 | 34935 ft | 474 kts | 150° |
| 2026-05-05 19:58 | -11.29691 | -68.47422 | 34938 ft | 474 kts | 150° |
| 2026-05-05 19:59 | -11.35477 | -68.44190 | 34937 ft | 474 kts | 150° |
| 2026-05-05 19:59 | -11.41219 | -68.40982 | 34933 ft | 473 kts | 150° |
| 2026-05-05 20:00 | -11.47003 | -68.37749 | 34934 ft | 473 kts | 150° |
| 2026-05-05 20:00 | -11.52771 | -68.34523 | 34935 ft | 472 kts | 150° |
| 2026-05-05 20:01 | -11.58535 | -68.31298 | 34933 ft | 472 kts | 150° |
| 2026-05-05 20:01 | -11.64251 | -68.28098 | 34928 ft | 471 kts | 150° |
| 2026-05-05 20:02 | -11.70000 | -68.24879 | 34932 ft | 471 kts | 150° |
| 2026-05-05 20:02 | -11.75747 | -68.21659 | 34933 ft | 471 kts | 150° |
| 2026-05-05 20:03 | -11.81499 | -68.18434 | 34936 ft | 471 kts | 150° |
| 2026-05-05 20:03 | -11.87252 | -68.15207 | 34933 ft | 472 kts | 150° |
| 2026-05-05 20:04 | -11.92977 | -68.11995 | 34927 ft | 472 kts | 150° |
| 2026-05-05 20:04 | -11.98737 | -68.08760 | 34926 ft | 473 kts | 150° |
| 2026-05-05 20:05 | -12.04517 | -68.05513 | 34931 ft | 474 kts | 150° |
| 2026-05-05 20:05 | -12.10296 | -68.02265 | 34933 ft | 475 kts | 150° |
| 2026-05-05 20:06 | -12.16160 | -67.99114 | 34927 ft | 476 kts | 154° |
| 2026-05-05 20:06 | -12.22144 | -67.96220 | 34925 ft | 476 kts | 154° |
| 2026-05-05 20:07 | -12.26120 | -67.94324 | 34921 ft | 476 kts | 154° |
| 2026-05-05 20:07 | -12.32500 | -67.91250 | 34919 ft | 476 kts | 154° |
| 2026-05-05 20:08 | -12.38485 | -67.88333 | 34919 ft | 476 kts | 154° |
| 2026-05-05 20:08 | -12.44464 | -67.85407 | 34921 ft | 475 kts | 154° |
| 2026-05-05 20:09 | -12.50427 | -67.82486 | 34920 ft | 475 kts | 154° |
| 2026-05-05 20:09 | -12.56386 | -67.79568 | 34921 ft | 475 kts | 154° |
| 2026-05-05 20:10 | -12.62345 | -67.76648 | 34916 ft | 474 kts | 154° |
| 2026-05-05 20:10 | -12.68292 | -67.73734 | 34918 ft | 474 kts | 154° |
| 2026-05-05 20:11 | -12.74197 | -67.70838 | 34918 ft | 473 kts | 154° |
| 2026-05-05 20:11 | -12.80140 | -67.67922 | 34920 ft | 473 kts | 154° |
| 2026-05-05 20:12 | -12.86078 | -67.65007 | 34914 ft | 473 kts | 154° |
| 2026-05-05 20:12 | -12.92008 | -67.62094 | 34920 ft | 472 kts | 154° |
| 2026-05-05 20:13 | -12.97943 | -67.59178 | 34916 ft | 472 kts | 154° |
| 2026-05-05 20:13 | -13.03868 | -67.56264 | 34918 ft | 472 kts | 154° |
| 2026-05-05 20:14 | -13.09748 | -67.53372 | 34911 ft | 472 kts | 154° |
| 2026-05-05 20:15 | -13.20949 | -67.47857 | 34911 ft | 471 kts | 154° |
| 2026-05-05 20:15 | -13.26865 | -67.44943 | 34916 ft | 471 kts | 154° |
| 2026-05-05 20:16 | -13.32782 | -67.42025 | 34911 ft | 471 kts | 154° |
| 2026-05-05 20:16 | -13.38694 | -67.39109 | 34913 ft | 472 kts | 154° |
| 2026-05-05 20:17 | -13.44574 | -67.36207 | 34910 ft | 472 kts | 154° |
| 2026-05-05 20:17 | -13.50498 | -67.33282 | 34912 ft | 472 kts | 154° |
| 2026-05-05 20:18 | -13.56425 | -67.30353 | 34909 ft | 473 kts | 154° |
| 2026-05-05 20:18 | -13.62356 | -67.27421 | 34908 ft | 473 kts | 154° |
| 2026-05-05 20:19 | -13.68286 | -67.24488 | 34908 ft | 473 kts | 154° |
| 2026-05-05 20:19 | -13.74232 | -67.21546 | 34909 ft | 474 kts | 154° |
| 2026-05-05 20:20 | -13.80177 | -67.18602 | 34908 ft | 474 kts | 154° |
| 2026-05-05 20:20 | -13.86126 | -67.15654 | 34906 ft | 475 kts | 154° |
| 2026-05-05 20:21 | -13.92042 | -67.12722 | 34903 ft | 475 kts | 154° |
| 2026-05-05 20:21 | -13.98000 | -67.09766 | 34905 ft | 476 kts | 154° |
| 2026-05-05 20:22 | -14.03965 | -67.06805 | 34904 ft | 476 kts | 154° |
| 2026-05-05 20:22 | -14.09930 | -67.03843 | 34905 ft | 476 kts | 154° |
| 2026-05-05 20:23 | -14.15896 | -67.00878 | 34898 ft | 476 kts | 154° |
| 2026-05-05 20:23 | -14.21857 | -66.97914 | 34902 ft | 476 kts | 154° |
| 2026-05-05 20:24 | -14.27822 | -66.94946 | 34901 ft | 476 kts | 154° |
| 2026-05-05 20:24 | -14.33786 | -66.91976 | 34895 ft | 476 kts | 154° |
| 2026-05-05 20:25 | -14.39746 | -66.89006 | 34893 ft | 475 kts | 154° |
| 2026-05-05 20:25 | -14.45671 | -66.86053 | 34895 ft | 475 kts | 155° |
| 2026-05-05 20:26 | -14.51900 | -66.83850 | 34908 ft | 473 kts | 168° |
| 2026-05-05 20:26 | -14.58343 | -66.82447 | 34899 ft | 473 kts | 169° |
| 2026-05-05 20:27 | -14.64792 | -66.81064 | 34894 ft | 474 kts | 169° |
| 2026-05-05 20:27 | -14.71239 | -66.79631 | 34899 ft | 474 kts | 168° |
| 2026-05-05 20:28 | -14.77691 | -66.78168 | 34894 ft | 474 kts | 168° |
| 2026-05-05 20:28 | -14.84101 | -66.76708 | 34896 ft | 475 kts | 169° |
| 2026-05-05 20:29 | -14.90565 | -66.75237 | 34894 ft | 476 kts | 169° |
| 2026-05-05 20:29 | -14.97037 | -66.73765 | 34895 ft | 476 kts | 169° |
| 2026-05-05 20:30 | -15.03523 | -66.72289 | 34896 ft | 477 kts | 169° |
| 2026-05-05 20:30 | -15.10005 | -66.70813 | 34903 ft | 477 kts | 169° |
| 2026-05-05 20:31 | -15.16494 | -66.69335 | 34904 ft | 478 kts | 169° |
| 2026-05-05 20:31 | -15.22992 | -66.67853 | 34908 ft | 478 kts | 169° |
| 2026-05-05 20:32 | -15.29487 | -66.66372 | 34917 ft | 478 kts | 169° |
| 2026-05-05 20:32 | -15.35984 | -66.64889 | 34923 ft | 478 kts | 169° |
| 2026-05-05 20:33 | -15.42433 | -66.63415 | 34929 ft | 477 kts | 169° |
| 2026-05-05 20:33 | -15.48915 | -66.61933 | 34934 ft | 477 kts | 169° |
| 2026-05-05 20:34 | -15.55395 | -66.60450 | 34942 ft | 476 kts | 169° |
| 2026-05-05 20:34 | -15.61868 | -66.58968 | 34944 ft | 476 kts | 169° |
| 2026-05-05 20:35 | -15.68338 | -66.57490 | 34953 ft | 476 kts | 169° |
| 2026-05-05 20:35 | -15.74768 | -66.56034 | 34969 ft | 475 kts | 169° |
| 2026-05-05 20:36 | -15.81231 | -66.54571 | 34971 ft | 475 kts | 169° |
| 2026-05-05 20:36 | -15.87700 | -66.53103 | 34981 ft | 475 kts | 169° |
| 2026-05-05 20:37 | -15.94169 | -66.51633 | 34994 ft | 476 kts | 169° |
| 2026-05-05 20:37 | -16.00647 | -66.50160 | 35000 ft | 476 kts | 169° |
| 2026-05-05 20:38 | -16.07127 | -66.48685 | 35018 ft | 477 kts | 169° |
| 2026-05-05 20:38 | -16.13585 | -66.47214 | 35024 ft | 477 kts | 169° |
| 2026-05-05 20:39 | -16.20080 | -66.45734 | 35045 ft | 477 kts | 169° |
| 2026-05-05 20:39 | -16.26550 | -66.44258 | 35060 ft | 476 kts | 169° |
| 2026-05-05 20:40 | -16.33017 | -66.42783 | 35074 ft | 476 kts | 169° |
| 2026-05-05 20:40 | -16.39443 | -66.41316 | 35094 ft | 475 kts | 169° |
| 2026-05-05 20:41 | -16.45919 | -66.39836 | 35114 ft | 475 kts | 169° |
| 2026-05-05 20:41 | -16.52389 | -66.38356 | 35142 ft | 475 kts | 169° |
| 2026-05-05 20:42 | -16.58849 | -66.36877 | 35158 ft | 475 kts | 170° |
| 2026-05-05 20:42 | -16.65312 | -66.35397 | 35187 ft | 475 kts | 170° |
| 2026-05-05 20:43 | -16.71777 | -66.33928 | 35205 ft | 475 kts | 170° |
| 2026-05-05 20:43 | -16.78207 | -66.32469 | 35223 ft | 476 kts | 170° |
| 2026-05-05 20:44 | -16.84679 | -66.30998 | 35245 ft | 477 kts | 170° |
| 2026-05-05 20:44 | -16.91156 | -66.29522 | 35254 ft | 475 kts | 170° |
| 2026-05-05 20:45 | -17.00850 | -66.27316 | 35345 ft | 475 kts | 170° |
| 2026-05-05 20:45 | -17.07265 | -66.25857 | 35341 ft | 474 kts | 170° |
| 2026-05-05 20:46 | -17.13711 | -66.24388 | 35311 ft | 474 kts | 170° |
| 2026-05-05 20:46 | -17.20154 | -66.22919 | 35279 ft | 473 kts | 170° |
| 2026-05-05 20:47 | -17.26588 | -66.21450 | 35256 ft | 473 kts | 170° |
| 2026-05-05 20:47 | -17.33032 | -66.19978 | 35225 ft | 474 kts | 170° |
| 2026-05-05 20:48 | -17.39469 | -66.18505 | 35235 ft | 474 kts | 170° |
| 2026-05-05 20:48 | -17.45931 | -66.17197 | 35240 ft | 472 kts | 174° |
| 2026-05-05 20:49 | -17.52436 | -66.16233 | 35247 ft | 471 kts | 175° |
| 2026-05-05 20:49 | -17.58939 | -66.15274 | 35212 ft | 472 kts | 174° |
| 2026-05-05 20:50 | -17.64336 | -66.14438 | 35190 ft | 472 kts | 174° |
| 2026-05-05 20:50 | -17.71900 | -66.13251 | 35152 ft | 472 kts | 174° |
| 2026-05-05 20:51 | -17.78412 | -66.12236 | 35123 ft | 473 kts | 174° |
| 2026-05-05 20:51 | -17.84940 | -66.11224 | 35112 ft | 475 kts | 174° |
| 2026-05-05 20:52 | -17.91474 | -66.10208 | 35120 ft | 474 kts | 175° |
| 2026-05-05 20:52 | -17.98006 | -66.09191 | 35112 ft | 474 kts | 174° |
| 2026-05-05 20:53 | -18.04535 | -66.08173 | 35110 ft | 474 kts | 174° |
| 2026-05-05 20:53 | -18.11054 | -66.07156 | 35115 ft | 473 kts | 174° |
| 2026-05-05 20:54 | -18.17561 | -66.06140 | 35108 ft | 473 kts | 174° |
| 2026-05-05 20:54 | -18.24068 | -66.05124 | 35095 ft | 472 kts | 175° |
| 2026-05-05 20:55 | -18.30508 | -66.04114 | 35099 ft | 470 kts | 174° |
| 2026-05-05 20:55 | -18.36976 | -66.03103 | 35114 ft | 470 kts | 175° |
| 2026-05-05 20:56 | -18.43460 | -66.02089 | 35107 ft | 472 kts | 175° |
| 2026-05-05 20:56 | -18.49975 | -66.01068 | 35083 ft | 473 kts | 175° |
| 2026-05-05 20:57 | -18.56485 | -66.00053 | 35124 ft | 473 kts | 175° |
| 2026-05-05 20:57 | -18.61915 | -65.99212 | 35115 ft | 475 kts | 175° |
| 2026-05-05 20:58 | -18.68457 | -65.98195 | 35115 ft | 476 kts | 175° |
| 2026-05-05 20:58 | -18.76082 | -65.97006 | 35119 ft | 476 kts | 175° |
| 2026-05-05 20:59 | -18.81581 | -65.96148 | 35119 ft | 477 kts | 175° |
| 2026-05-05 20:59 | -18.88144 | -65.95123 | 35118 ft | 477 kts | 175° |
| 2026-05-05 21:00 | -18.94662 | -65.94104 | 35112 ft | 476 kts | 175° |
| 2026-05-05 21:00 | -19.01202 | -65.93081 | 35109 ft | 474 kts | 175° |
| 2026-05-05 21:01 | -19.07729 | -65.92059 | 35118 ft | 472 kts | 175° |
| 2026-05-05 21:01 | -19.14225 | -65.91042 | 35097 ft | 471 kts | 175° |
| 2026-05-05 21:02 | -19.20717 | -65.90018 | 35087 ft | 470 kts | 175° |
| 2026-05-05 21:02 | -19.27188 | -65.88999 | 35072 ft | 469 kts | 175° |
| 2026-05-05 21:03 | -19.33645 | -65.87989 | 35070 ft | 469 kts | 175° |
| 2026-05-05 21:03 | -19.40092 | -65.86977 | 35077 ft | 468 kts | 175° |
| 2026-05-05 21:04 | -19.46553 | -65.85967 | 35061 ft | 470 kts | 175° |
| 2026-05-05 21:04 | -19.53028 | -65.84957 | 35049 ft | 471 kts | 175° |
| 2026-05-05 21:05 | -19.59510 | -65.83945 | 35052 ft | 472 kts | 175° |
| 2026-05-05 21:05 | -19.65969 | -65.82935 | 35039 ft | 473 kts | 175° |
| 2026-05-05 21:06 | -19.72490 | -65.81916 | 35025 ft | 474 kts | 175° |
| 2026-05-05 21:06 | -19.79017 | -65.80897 | 35007 ft | 474 kts | 175° |
| 2026-05-05 21:07 | -19.85554 | -65.79877 | 34987 ft | 475 kts | 175° |
| 2026-05-05 21:07 | -19.92074 | -65.78858 | 34989 ft | 470 kts | 175° |
| 2026-05-05 21:08 | -19.98517 | -65.77851 | 34976 ft | 467 kts | 175° |
| 2026-05-05 21:08 | -20.04953 | -65.76845 | 34941 ft | 468 kts | 175° |
| 2026-05-05 21:09 | -20.11403 | -65.75847 | 34932 ft | 469 kts | 175° |
| 2026-05-05 21:09 | -20.17870 | -65.74850 | 34923 ft | 471 kts | 176° |
| 2026-05-05 21:10 | -20.24368 | -65.73848 | 34922 ft | 473 kts | 176° |
| 2026-05-05 21:10 | -20.30886 | -65.72841 | 34909 ft | 473 kts | 176° |
| 2026-05-05 21:11 | -20.37388 | -65.71835 | 34906 ft | 475 kts | 176° |
| 2026-05-05 21:11 | -20.43944 | -65.70820 | 34885 ft | 476 kts | 176° |
| 2026-05-05 21:12 | -20.50488 | -65.69805 | 34897 ft | 475 kts | 176° |
| 2026-05-05 21:12 | -20.56997 | -65.68796 | 34901 ft | 476 kts | 176° |
| 2026-05-05 21:13 | -20.63560 | -65.67777 | 34903 ft | 475 kts | 176° |
| 2026-05-05 21:13 | -20.70100 | -65.66760 | 34893 ft | 474 kts | 176° |
| 2026-05-05 21:14 | -20.76616 | -65.65746 | 34900 ft | 472 kts | 176° |
| 2026-05-05 21:14 | -20.83109 | -65.64736 | 34896 ft | 471 kts | 176° |
| 2026-05-05 21:15 | -20.89584 | -65.63728 | 34923 ft | 469 kts | 176° |
| 2026-05-05 21:15 | -20.96001 | -65.62727 | 34921 ft | 468 kts | 176° |
| 2026-05-05 21:16 | -21.02441 | -65.61722 | 34932 ft | 466 kts | 176° |
| 2026-05-05 21:16 | -21.08869 | -65.60719 | 34936 ft | 467 kts | 176° |
| 2026-05-05 21:17 | -21.15306 | -65.59713 | 34942 ft | 467 kts | 177° |
| 2026-05-05 21:17 | -21.21746 | -65.58706 | 34934 ft | 468 kts | 177° |
| 2026-05-05 21:18 | -21.28192 | -65.57697 | 34939 ft | 468 kts | 177° |
| 2026-05-05 21:18 | -21.34602 | -65.56693 | 34940 ft | 469 kts | 177° |
| 2026-05-05 21:19 | -21.41064 | -65.55679 | 34935 ft | 469 kts | 177° |
| 2026-05-05 21:19 | -21.47537 | -65.54663 | 34927 ft | 470 kts | 177° |
| 2026-05-05 21:20 | -21.54007 | -65.53646 | 34926 ft | 470 kts | 177° |
| 2026-05-05 21:20 | -21.60469 | -65.52629 | 34928 ft | 468 kts | 177° |
| 2026-05-05 21:21 | -21.66867 | -65.51621 | 34921 ft | 466 kts | 177° |
| 2026-05-05 21:21 | -21.73288 | -65.50611 | 34943 ft | 466 kts | 177° |
| 2026-05-05 21:22 | -21.79733 | -65.49595 | 34938 ft | 467 kts | 177° |
| 2026-05-05 21:22 | -21.86164 | -65.48580 | 34954 ft | 467 kts | 177° |
| 2026-05-05 21:23 | -21.92612 | -65.47563 | 34948 ft | 467 kts | 177° |
| 2026-05-05 21:23 | -21.98994 | -65.46554 | 34959 ft | 466 kts | 177° |
| 2026-05-05 21:24 | -22.05405 | -65.45541 | 34979 ft | 466 kts | 177° |
| 2026-05-05 21:24 | -22.11818 | -65.44881 | 34989 ft | 458 kts | 186° |
| 2026-05-05 21:25 | -22.18185 | -65.44989 | 34990 ft | 457 kts | 187° |
| 2026-05-05 21:25 | -22.24543 | -65.45150 | 35012 ft | 457 kts | 187° |
| 2026-05-05 21:26 | -22.30908 | -65.45259 | 35013 ft | 458 kts | 187° |
| 2026-05-05 21:26 | -22.37239 | -65.45337 | 35023 ft | 458 kts | 187° |
| 2026-05-05 21:27 | -22.43619 | -65.45411 | 35029 ft | 458 kts | 187° |
| 2026-05-05 21:27 | -22.50002 | -65.45487 | 35038 ft | 458 kts | 187° |
| 2026-05-05 21:28 | -22.56386 | -65.45564 | 35040 ft | 459 kts | 187° |
| 2026-05-05 21:28 | -22.62778 | -65.45642 | 35048 ft | 459 kts | 187° |
| 2026-05-05 21:29 | -22.69163 | -65.45720 | 35050 ft | 459 kts | 187° |
| 2026-05-05 21:29 | -22.75552 | -65.45799 | 35060 ft | 458 kts | 187° |
| 2026-05-05 21:30 | -22.81889 | -65.45875 | 35051 ft | 458 kts | 187° |
| 2026-05-05 21:30 | -22.88272 | -65.45950 | 35050 ft | 459 kts | 187° |
| 2026-05-05 21:31 | -22.94660 | -65.46025 | 35052 ft | 459 kts | 187° |
| 2026-05-05 21:31 | -23.01062 | -65.46103 | 35053 ft | 459 kts | 187° |
| 2026-05-05 21:32 | -23.07410 | -65.46180 | 35101 ft | 453 kts | 187° |
| 2026-05-05 21:32 | -23.13777 | -65.46258 | 35042 ft | 460 kts | 187° |
| 2026-05-05 21:33 | -23.20150 | -65.46335 | 35045 ft | 457 kts | 188° |
| 2026-05-05 21:33 | -23.26442 | -65.46408 | 35047 ft | 450 kts | 188° |
| 2026-05-05 21:34 | -23.32685 | -65.46489 | 34742 ft | 449 kts | 188° |
| 2026-05-05 21:34 | -23.35795 | -65.46527 | 34437 ft | 444 kts | 188° |
| 2026-05-05 21:34 | -23.38878 | -65.46564 | 34037 ft | 442 kts | 188° |
| 2026-05-05 21:35 | -23.41944 | -65.46602 | 33593 ft | 439 kts | 187° |
| 2026-05-05 21:35 | -23.44990 | -65.46639 | 33162 ft | 436 kts | 187° |
| 2026-05-05 21:35 | -23.48009 | -65.46677 | 32733 ft | 432 kts | 188° |
| 2026-05-05 21:35 | -23.51003 | -65.46713 | 32358 ft | 428 kts | 187° |
| 2026-05-05 21:36 | -23.53976 | -65.46675 | 31929 ft | 429 kts | 181° |
| 2026-05-05 21:36 | -23.56938 | -65.46171 | 31543 ft | 434 kts | 172° |
| 2026-05-05 21:36 | -23.59838 | -65.45118 | 31043 ft | 441 kts | 163° |
| 2026-05-05 21:36 | -23.62634 | -65.43862 | 30614 ft | 439 kts | 162° |
| 2026-05-05 21:37 | -23.65434 | -65.42570 | 30241 ft | 436 kts | 161° |
| 2026-05-05 21:37 | -23.68227 | -65.41280 | 29798 ft | 435 kts | 161° |
| 2026-05-05 21:37 | -23.71006 | -65.40008 | 29365 ft | 432 kts | 161° |
| 2026-05-05 21:37 | -23.73777 | -65.38750 | 28941 ft | 429 kts | 161° |
| 2026-05-05 21:38 | -23.76533 | -65.37509 | 28541 ft | 427 kts | 161° |
| 2026-05-05 21:38 | -23.79258 | -65.36287 | 28087 ft | 418 kts | 161° |
| 2026-05-05 21:38 | -23.81892 | -65.35104 | 27725 ft | 399 kts | 161° |
| 2026-05-05 21:38 | -23.84399 | -65.33977 | 27336 ft | 380 kts | 161° |
| 2026-05-05 21:39 | -23.86799 | -65.32898 | 26999 ft | 365 kts | 162° |
| 2026-05-05 21:39 | -23.89119 | -65.31858 | 26670 ft | 356 kts | 162° |
| 2026-05-05 21:39 | -23.91394 | -65.30842 | 26380 ft | 359 kts | 162° |
| 2026-05-05 21:39 | -23.93696 | -65.29816 | 26045 ft | 354 kts | 162° |
| 2026-05-05 21:40 | -23.95960 | -65.28803 | 25681 ft | 348 kts | 161° |
| 2026-05-05 21:40 | -23.98187 | -65.27805 | 25343 ft | 343 kts | 161° |
| 2026-05-05 21:40 | -24.00376 | -65.26823 | 25016 ft | 337 kts | 161° |
| 2026-05-05 21:40 | -24.02521 | -65.25859 | 24688 ft | 326 kts | 161° |
| 2026-05-05 21:41 | -24.04575 | -65.24934 | 24368 ft | 313 kts | 162° |
| 2026-05-05 21:41 | -24.06551 | -65.24044 | 24073 ft | 302 kts | 162° |
| 2026-05-05 21:41 | -24.08473 | -65.23180 | 23790 ft | 297 kts | 162° |
| 2026-05-05 21:41 | -24.10387 | -65.22321 | 23517 ft | 297 kts | 162° |
| 2026-05-05 21:42 | -24.12301 | -65.21464 | 23185 ft | 297 kts | 161° |
| 2026-05-05 21:42 | -24.14211 | -65.20607 | 22885 ft | 297 kts | 161° |
| 2026-05-05 21:42 | -24.16126 | -65.19747 | 22586 ft | 297 kts | 161° |
| 2026-05-05 21:42 | -24.18032 | -65.18890 | 22269 ft | 296 kts | 161° |
| 2026-05-05 21:43 | -24.19909 | -65.18044 | 22004 ft | 294 kts | 161° |
| 2026-05-05 21:43 | -24.21800 | -65.17193 | 21713 ft | 294 kts | 161° |
| 2026-05-05 21:43 | -24.23693 | -65.16341 | 21430 ft | 293 kts | 161° |
| 2026-05-05 21:43 | -24.25572 | -65.15494 | 21151 ft | 292 kts | 161° |
| 2026-05-05 21:44 | -24.27448 | -65.14649 | 20866 ft | 291 kts | 161° |
| 2026-05-05 21:44 | -24.29315 | -65.13807 | 20584 ft | 289 kts | 161° |
| 2026-05-05 21:44 | -24.31173 | -65.12969 | 20300 ft | 288 kts | 161° |
| 2026-05-05 21:44 | -24.33021 | -65.12136 | 20019 ft | 286 kts | 161° |
| 2026-05-05 21:45 | -24.34856 | -65.11307 | 19741 ft | 284 kts | 161° |
| 2026-05-05 21:45 | -24.36681 | -65.10483 | 19470 ft | 283 kts | 160° |
| 2026-05-05 21:45 | -24.38509 | -65.09718 | 19176 ft | 278 kts | 172° |
| 2026-05-05 21:45 | -24.40396 | -65.09703 | 18817 ft | 271 kts | 196° |
| 2026-05-05 21:46 | -24.41590 | -65.10089 | 18579 ft | 268 kts | 202° |
| 2026-05-05 21:46 | -24.43329 | -65.10779 | 18245 ft | 264 kts | 203° |
| 2026-05-05 21:46 | -24.45575 | -65.11705 | 17844 ft | 258 kts | 203° |
| 2026-05-05 21:46 | -24.47259 | -65.12399 | 17570 ft | 259 kts | 202° |
| 2026-05-05 21:47 | -24.48393 | -65.12865 | 17407 ft | 255 kts | 202° |
| 2026-05-05 21:47 | -24.50042 | -65.13539 | 17141 ft | 250 kts | 202° |
| 2026-05-05 21:47 | -24.51662 | -65.14198 | 16854 ft | 248 kts | 202° |
| 2026-05-05 21:47 | -24.53272 | -65.14852 | 16616 ft | 250 kts | 202° |
| 2026-05-05 21:48 | -24.54918 | -65.15518 | 16350 ft | 252 kts | 202° |
| 2026-05-05 21:48 | -24.56571 | -65.16188 | 16084 ft | 254 kts | 201° |
| 2026-05-05 21:48 | -24.58229 | -65.16858 | 15828 ft | 255 kts | 201° |
| 2026-05-05 21:48 | -24.59894 | -65.17530 | 15554 ft | 255 kts | 201° |
| 2026-05-05 21:49 | -24.61546 | -65.18197 | 15272 ft | 251 kts | 201° |
| 2026-05-05 21:49 | -24.63168 | -65.18851 | 15013 ft | 246 kts | 201° |
| 2026-05-05 21:49 | -24.64776 | -65.19500 | 14767 ft | 246 kts | 201° |
| 2026-05-05 21:49 | -24.66387 | -65.20150 | 14503 ft | 247 kts | 201° |
| 2026-05-05 21:50 | -24.67986 | -65.20796 | 14242 ft | 248 kts | 201° |
| 2026-05-05 21:50 | -24.69086 | -65.21240 | 14070 ft | 249 kts | 201° |
| 2026-05-05 21:50 | -24.71246 | -65.22113 | 13714 ft | 250 kts | 200° |
| 2026-05-05 21:50 | -24.72880 | -65.22773 | 13420 ft | 250 kts | 200° |
| 2026-05-05 21:51 | -24.74505 | -65.23430 | 13153 ft | 248 kts | 200° |
| 2026-05-05 21:51 | -24.76117 | -65.24082 | 12890 ft | 246 kts | 200° |
| 2026-05-05 21:51 | -24.77719 | -65.24730 | 12627 ft | 244 kts | 200° |
| 2026-05-05 21:51 | -24.79307 | -65.25372 | 12371 ft | 243 kts | 199° |
| 2026-05-05 21:52 | -24.82465 | -65.26651 | 11865 ft | 241 kts | 199° |
| 2026-05-05 21:52 | -24.84040 | -65.27289 | 11596 ft | 241 kts | 199° |
| 2026-05-05 21:52 | -24.85608 | -65.27924 | 11347 ft | 240 kts | 199° |
| 2026-05-05 21:53 | -24.87174 | -65.28558 | 11081 ft | 240 kts | 198° |
| 2026-05-05 21:53 | -24.88720 | -65.29183 | 10822 ft | 239 kts | 198° |
| 2026-05-05 21:53 | -24.90284 | -65.29816 | 10558 ft | 239 kts | 198° |
| 2026-05-05 21:53 | -24.91837 | -65.30445 | 10348 ft | 234 kts | 198° |
| 2026-05-05 21:54 | -24.93354 | -65.31060 | 10206 ft | 230 kts | 198° |
| 2026-05-05 21:54 | -24.94850 | -65.31667 | 10113 ft | 230 kts | 198° |
| 2026-05-05 21:54 | -24.96364 | -65.32280 | 10017 ft | 235 kts | 198° |
| 2026-05-05 21:54 | -24.97899 | -65.32903 | 9781 ft | 238 kts | 198° |
| 2026-05-05 21:55 | -24.99441 | -65.33530 | 9553 ft | 233 kts | 198° |
| 2026-05-05 21:55 | -25.00940 | -65.34138 | 9469 ft | 228 kts | 198° |
| 2026-05-05 21:55 | -25.02435 | -65.34743 | 9365 ft | 231 kts | 198° |
| 2026-05-05 21:55 | -25.03946 | -65.35356 | 9272 ft | 231 kts | 199° |
| 2026-05-05 21:56 | -25.05272 | -65.36351 | 9168 ft | 234 kts | 231° |
| 2026-05-05 21:56 | -25.05905 | -65.38002 | 8913 ft | 237 kts | 268° |
| 2026-05-05 21:56 | -25.05759 | -65.39794 | 8734 ft | 235 kts | 281° |
| 2026-05-05 21:56 | -25.05436 | -65.41547 | 8488 ft | 230 kts | 283° |
| 2026-05-05 21:57 | -25.05108 | -65.43263 | 8249 ft | 227 kts | 282° |
| 2026-05-05 21:57 | -25.04798 | -65.44937 | 8038 ft | 219 kts | 282° |
| 2026-05-05 21:57 | -25.04505 | -65.46557 | 7818 ft | 212 kts | 282° |
| 2026-05-05 21:57 | -25.04225 | -65.48126 | 7597 ft | 206 kts | 282° |
| 2026-05-05 21:58 | -25.03957 | -65.49636 | 7382 ft | 201 kts | 281° |
| 2026-05-05 21:58 | -25.03530 | -65.51088 | 7175 ft | 200 kts | 307° |
| 2026-05-05 21:58 | -25.02460 | -65.51987 | 6999 ft | 195 kts | 345° |
| 2026-05-05 21:58 | -25.01114 | -65.52045 | 6846 ft | 196 kts | 8° |
| 2026-05-05 21:59 | -24.99755 | -65.51768 | 6597 ft | 200 kts | 11° |
| 2026-05-05 21:59 | -24.98391 | -65.51459 | 6363 ft | 202 kts | 11° |
| 2026-05-05 21:59 | -24.97025 | -65.51151 | 6084 ft | 198 kts | 12° |
| 2026-05-05 21:59 | -24.95694 | -65.50855 | 5826 ft | 192 kts | 12° |
| 2026-05-05 22:00 | -24.94380 | -65.50562 | 5759 ft | 195 kts | 12° |
| 2026-05-05 22:00 | -24.93055 | -65.50266 | 5784 ft | 191 kts | 12° |
| 2026-05-05 22:00 | -24.91826 | -65.49998 | 5783 ft | 175 kts | 11° |
| 2026-05-05 22:00 | -24.90648 | -65.49756 | 5451 ft | 166 kts | 11° |
| 2026-05-05 22:01 | -24.89583 | -65.49539 | 5186 ft | 150 kts | 11° |
| 2026-05-05 22:01 | -24.88565 | -65.49320 | 4722 ft | 149 kts | 12° |
| 2026-05-05 22:01 | -24.87574 | -65.49069 | 4313 ft | 143 kts | 13° |
| 2026-05-05 22:01 | -24.86644 | -65.48859 | 4090 ft | 125 kts | 10° |
| 2026-05-05 22:02 | -24.85877 | -65.48678 | 4068 ft | 103 kts | 12° |
| 2026-05-05 22:02 | -24.85227 | -65.48544 | 4057 ft | 87 kts | 11° |
| 2026-05-05 22:02 | -24.84747 | -65.48435 | 4048 ft | 32 kts | 15° |
| 2026-05-05 22:02 | -24.84648 | -65.48364 | 4045 ft | 8 kts | 44° |
| 2026-05-05 22:03 | -24.84606 | -65.48307 | 4045 ft | 10 kts | 64° |
| 2026-05-05 22:03 | -24.84584 | -65.48236 | 4043 ft | 10 kts | 71° |
| 2026-05-05 22:03 | -24.84562 | -65.48169 | 4041 ft | 9 kts | 71° |
| 2026-05-05 22:03 | -24.84541 | -65.48098 | 4039 ft | 10 kts | 72° |
| 2026-05-05 22:04 | -24.84518 | -65.48018 | 4035 ft | 12 kts | 69° |
| 2026-05-05 22:04 | -24.84504 | -65.47936 | 4030 ft | 11 kts | 98° |
| 2026-05-05 22:04 | -24.84528 | -65.47860 | 4026 ft | 7 kts | 101° |
| 2026-05-05 22:04 | -24.84522 | -65.47828 | 4024 ft | 0 kts | 73° |